createdAt,value
2024-02-13T00:03:37.726Z,99209.16
2024-02-13T00:08:45.672Z,99210.69
2024-02-13T00:13:53.422Z,99210.00
2024-02-13T00:19:02.805Z,99231.47
2024-02-13T00:24:12.245Z,99229.00
2024-02-13T00:29:15.760Z,99237.09
2024-02-13T00:34:20.983Z,99222.38
2024-02-13T00:39:25.576Z,99245.19
2024-02-13T00:44:29.055Z,99249.00
2024-02-13T00:49:33.457Z,99242.38
2024-02-13T00:54:37.119Z,99241.09
2024-02-13T00:59:41.445Z,99253.00
2024-02-13T01:04:45.851Z,99255.66
2024-02-13T01:09:49.237Z,99253.34
2024-02-13T01:14:52.824Z,99265.09
2024-02-13T01:19:56.302Z,99272.50
2024-02-13T01:25:00.291Z,99280.09
2024-02-13T01:30:04.012Z,99289.38
2024-02-13T01:35:11.736Z,99289.53
2024-02-13T01:40:17.608Z,99307.16
2024-02-13T01:45:22.504Z,99313.44
2024-02-13T01:50:28.563Z,99322.19
2024-02-13T01:55:33.215Z,99328.94
2024-02-13T02:00:37.432Z,99334.88
2024-02-13T02:05:40.881Z,99337.34
2024-02-13T02:10:45.864Z,99334.84
2024-02-13T02:15:50.206Z,99336.34
2024-02-13T02:20:54.023Z,99326.63
2024-02-13T02:25:57.515Z,99330.72
2024-02-13T02:31:01.146Z,99335.19
2024-02-13T02:36:05.384Z,99331.25
2024-02-13T02:41:08.900Z,99329.25
2024-02-13T02:46:13.961Z,99341.63
2024-02-13T02:51:17.887Z,99347.41
2024-02-13T02:56:22.330Z,99358.28
2024-02-13T03:01:26.010Z,99358.63
2024-02-13T03:06:30.535Z,99369.84
2024-02-13T03:11:35.498Z,99366.03
2024-02-13T03:16:40.403Z,99369.03
2024-02-13T03:21:44.080Z,99381.75
2024-02-13T03:26:47.476Z,99383.91
2024-02-13T03:31:50.950Z,99393.13
2024-02-13T03:36:54.396Z,99385.91
2024-02-13T03:41:57.973Z,99402.56
2024-02-13T03:47:01.308Z,99413.28
2024-02-13T03:52:05.285Z,99412.31
2024-02-13T03:57:08.693Z,99415.78
2024-02-13T04:02:12.512Z,99419.06
2024-02-13T04:07:16.944Z,99430.44
2024-02-13T04:12:22.744Z,99443.44
2024-02-13T04:17:26.672Z,99441.09
2024-02-13T04:22:30.093Z,99444.38
2024-02-13T04:27:33.268Z,99444.81
2024-02-13T04:32:39.900Z,99448.59
2024-02-13T04:37:45.006Z,99453.38
2024-02-13T04:42:49.582Z,99458.88
2024-02-13T04:47:53.186Z,99469.84
2024-02-13T04:52:56.769Z,99480.81
2024-02-13T04:58:00.615Z,99494.47
2024-02-13T05:03:17.715Z,99504.38
2024-02-13T05:08:21.540Z,99512.81
2024-02-13T05:13:25.238Z,99520.03
2024-02-13T05:18:29.030Z,99528.97
2024-02-13T05:23:32.572Z,99517.94
2024-02-13T05:28:39.111Z,99513.75
2024-02-13T05:33:44.051Z,99530.66
2024-02-13T05:38:49.583Z,99528.53
2024-02-13T05:43:54.048Z,99540.94
2024-02-13T05:49:00.651Z,99557.38
2024-02-13T05:54:06.353Z,99572.75
2024-02-13T05:59:10.464Z,99582.94
2024-02-13T06:04:14.697Z,99596.84
2024-02-13T06:09:22.558Z,99614.09
2024-02-13T06:14:26.098Z,99610.69
2024-02-13T06:19:29.504Z,99626.88
2024-02-13T06:24:32.873Z,99632.50
2024-02-13T06:29:36.398Z,99651.66
2024-02-13T06:34:40.763Z,99662.88
2024-02-13T06:39:44.105Z,99672.16
2024-02-13T06:44:48.717Z,99695.81
2024-02-13T06:49:52.839Z,99691.06
2024-02-13T06:54:56.221Z,99679.38
2024-02-13T07:00:05.191Z,99693.41
2024-02-13T07:05:10.902Z,99697.06
2024-02-13T07:10:15.336Z,99693.78
2024-02-13T07:15:19.925Z,99705.06
2024-02-13T07:20:27.537Z,99709.53
2024-02-13T07:25:32.121Z,99726.16
2024-02-13T07:30:35.691Z,99726.22
2024-02-13T07:35:40.698Z,99713.41
2024-02-13T07:40:45.261Z,99695.06
2024-02-13T07:45:48.712Z,99698.59
2024-02-13T07:50:54.954Z,99719.63
2024-02-13T07:55:58.923Z,99721.81
2024-02-13T08:01:02.344Z,99724.69
2024-02-13T08:06:06.334Z,99728.63
2024-02-13T08:11:11.376Z,99736.59
2024-02-13T08:16:15.383Z,99733.31
2024-02-13T08:21:19.116Z,99746.63
2024-02-13T08:26:22.665Z,99749.03
2024-02-13T08:31:27.007Z,99753.84
2024-02-13T08:36:30.923Z,99774.03
2024-02-13T08:41:34.675Z,99779.78
2024-02-13T08:46:41.467Z,99785.69
2024-02-13T08:51:44.991Z,99787.31
2024-02-13T08:56:48.490Z,99783.50
2024-02-13T09:01:52.291Z,99791.53
2024-02-13T09:06:57.050Z,99796.47
2024-02-13T09:12:01.182Z,99802.22
2024-02-13T09:17:06.367Z,99805.22
2024-02-13T09:22:15.113Z,99790.19
2024-02-13T09:27:21.087Z,99805.59
2024-02-13T09:32:25.265Z,99813.50
2024-02-13T09:37:28.628Z,99825.53
2024-02-13T09:42:32.080Z,99817.78
2024-02-13T09:47:37.612Z,99822.94
2024-02-13T09:52:58.489Z,99838.47
2024-02-13T09:58:02.585Z,99823.72
2024-02-13T10:03:07.775Z,99822.16
2024-02-13T10:08:12.788Z,99814.00
2024-02-13T10:13:16.787Z,99827.53
2024-02-13T10:18:21.638Z,99824.03
2024-02-13T10:23:26.160Z,99817.66
2024-02-13T10:28:31.210Z,99823.34
2024-02-13T10:33:43.076Z,99816.63
2024-02-13T10:38:52.618Z,99820.69
2024-02-13T10:43:57.109Z,99815.09
2024-02-13T10:49:27.929Z,99821.91
2024-02-13T10:54:37.329Z,99818.63
2024-02-13T10:59:42.921Z,99823.59
2024-02-13T11:04:49.144Z,99815.41
2024-02-13T11:09:54.489Z,99827.78
2024-02-13T11:15:13.156Z,99842.44
2024-02-13T11:20:20.512Z,99848.69
2024-02-13T11:25:28.391Z,99848.47
2024-02-13T11:30:31.982Z,99837.56
2024-02-13T11:35:48.543Z,99826.91
2024-02-13T11:40:57.992Z,99826.28
2024-02-13T11:46:05.373Z,99822.22
2024-02-13T11:51:09.398Z,99836.63
2024-02-13T11:56:14.356Z,99826.50
2024-02-13T12:01:20.139Z,99836.88
2024-02-13T12:06:25.706Z,99837.53
2024-02-13T12:11:30.680Z,99842.94
2024-02-13T12:16:34.661Z,99844.81
2024-02-13T12:21:41.398Z,99845.88
2024-02-13T12:26:45.233Z,99849.59
2024-02-13T12:31:49.151Z,99839.22
2024-02-13T12:36:59.239Z,99856.94
2024-02-13T12:42:03.781Z,99855.88
2024-02-13T12:47:09.258Z,99858.38
2024-02-13T12:52:18.166Z,99865.56
2024-02-13T12:57:22.004Z,99857.06
2024-02-13T13:02:27.501Z,99864.13
2024-02-13T13:07:33.189Z,99861.25
2024-02-13T13:12:38.055Z,99882.91
2024-02-13T13:17:43.048Z,99878.09
2024-02-13T13:22:48.887Z,99879.63
2024-02-13T13:27:53.261Z,99890.50
2024-02-13T13:32:56.850Z,99901.63
2024-02-13T13:38:00.446Z,99919.56
2024-02-13T13:43:07.863Z,99918.75
2024-02-13T13:48:17.117Z,99924.69
2024-02-13T13:53:24.316Z,99919.56
2024-02-13T13:58:28.257Z,99930.47
2024-02-13T14:03:31.863Z,99935.09
2024-02-13T14:08:39.680Z,99921.06
2024-02-13T14:13:43.470Z,99943.50
2024-02-13T14:18:46.922Z,99956.47
2024-02-13T14:23:55.190Z,99960.63
2024-02-13T14:28:58.641Z,99962.97
2024-02-13T14:34:02.392Z,99962.31
2024-02-13T14:39:08.260Z,99973.44
2024-02-13T14:44:11.796Z,99977.09
2024-02-13T14:49:15.678Z,99984.88
2024-02-13T14:54:22.508Z,99994.97
2024-02-13T14:59:26.412Z,100004.94
2024-02-13T15:04:29.970Z,100004.25
2024-02-13T15:09:35.264Z,100015.50
2024-02-13T15:14:39.118Z,100018.97
2024-02-13T15:19:42.649Z,100029.41
2024-02-13T15:24:46.436Z,100041.28
2024-02-13T15:29:51.001Z,100052.47
2024-02-13T15:34:57.952Z,100057.00
2024-02-13T15:40:19.962Z,100062.19
2024-02-13T15:45:41.804Z,100059.13
2024-02-13T15:50:47.293Z,100074.13
2024-02-13T15:55:50.595Z,100087.91
2024-02-13T16:00:54.187Z,100095.63
2024-02-13T16:05:58.305Z,100105.63
2024-02-13T16:11:01.846Z,100106.31
2024-02-13T16:16:06.533Z,100122.41
2024-02-13T16:21:10.113Z,100136.06
2024-02-13T16:26:13.694Z,100144.22
2024-02-13T16:31:21.892Z,100153.16
2024-02-13T16:36:26.702Z,100157.69
2024-02-13T16:41:30.154Z,100163.16
2024-02-13T16:46:34.833Z,100171.94
2024-02-13T16:51:39.244Z,100178.38
2024-02-13T16:56:43.616Z,100190.06
2024-02-13T17:01:47.075Z,100189.94
2024-02-13T17:06:50.681Z,100203.59
2024-02-13T17:12:01.827Z,100209.72
2024-02-13T17:17:08.099Z,100221.94
2024-02-13T17:22:12.426Z,100223.22
2024-02-13T17:27:15.766Z,100236.56
2024-02-13T17:32:19.213Z,100239.06
2024-02-13T17:37:24.528Z,100250.59
2024-02-13T17:42:27.747Z,100260.75
2024-02-13T17:47:31.627Z,100253.38
2024-02-13T17:52:35.395Z,100272.72
2024-02-13T17:57:41.450Z,100261.00
2024-02-13T18:02:46.045Z,100273.94
2024-02-13T18:07:49.443Z,100276.72
2024-02-13T18:12:58.573Z,100277.81
2024-02-13T18:18:02.070Z,100289.19
2024-02-13T18:23:08.621Z,100290.19
2024-02-13T18:28:14.771Z,100293.94
2024-02-13T18:33:18.518Z,100299.22
2024-02-13T18:38:22.482Z,100308.22
2024-02-13T18:43:29.376Z,100312.94
2024-02-13T18:48:32.941Z,100328.53
2024-02-13T18:53:36.819Z,100328.81
2024-02-13T18:58:41.221Z,100326.75
2024-02-13T19:03:44.804Z,100337.00
2024-02-13T19:08:49.078Z,100346.59
2024-02-13T19:13:52.465Z,100346.44
2024-02-13T19:18:57.986Z,100358.78
2024-02-13T19:24:01.703Z,100356.94
2024-02-13T19:29:05.881Z,100376.16
2024-02-13T19:34:09.493Z,100387.47
2024-02-13T19:39:14.091Z,100390.16
2024-02-13T19:44:18.671Z,100391.19
2024-02-13T19:49:22.130Z,100412.19
2024-02-13T19:54:25.762Z,100409.56
2024-02-13T19:59:29.322Z,100425.13
2024-02-13T20:04:33.208Z,100425.19
2024-02-13T20:09:37.027Z,100435.00
2024-02-13T20:14:40.280Z,100426.56
2024-02-13T20:19:43.543Z,100434.78
2024-02-13T20:24:48.607Z,100439.41
2024-02-13T20:29:53.099Z,100441.53
2024-02-13T20:34:57.669Z,100439.88
2024-02-13T20:40:08.585Z,100445.47
2024-02-13T20:45:20.749Z,100438.72
2024-02-13T20:50:26.279Z,100441.97
2024-02-13T20:55:29.864Z,100445.38
2024-02-13T21:00:35.672Z,100449.94
2024-02-13T21:05:39.507Z,100450.03
2024-02-13T21:10:43.061Z,100461.66
2024-02-13T21:15:46.808Z,100462.50
2024-02-13T21:21:09.116Z,100456.97
2024-02-13T21:26:12.630Z,100455.06
2024-02-13T21:31:17.078Z,100467.97
2024-02-13T21:36:20.302Z,100469.75
2024-02-13T21:41:24.006Z,100463.66
2024-02-13T21:46:27.248Z,100469.75
2024-02-13T21:51:31.320Z,100462.00
2024-02-13T21:56:34.836Z,100472.53
2024-02-13T22:01:38.200Z,100477.09
2024-02-13T22:06:41.743Z,100478.31
2024-02-13T22:11:45.238Z,100481.78
2024-02-13T22:16:50.369Z,100485.84
2024-02-13T22:21:54.305Z,100496.38
2024-02-13T22:26:58.683Z,100507.84
2024-02-13T22:32:02.843Z,100505.69
2024-02-13T22:37:07.125Z,100511.28
2024-02-13T22:42:11.020Z,100519.56
2024-02-13T22:47:14.445Z,100519.56
2024-02-13T22:52:17.769Z,100523.97
2024-02-13T22:57:20.939Z,100538.69
2024-02-13T23:02:24.736Z,100543.31
2024-02-13T23:07:28.834Z,100536.38
2024-02-13T23:12:33.640Z,100539.63
2024-02-13T23:17:37.570Z,100522.75
2024-02-13T23:22:41.104Z,100527.91
2024-02-13T23:27:44.758Z,100545.22
2024-02-13T23:32:51.544Z,100549.06
2024-02-13T23:37:55.821Z,100543.72
2024-02-13T23:43:00.310Z,100541.66
2024-02-13T23:48:04.613Z,100548.78
2024-02-13T23:53:09.435Z,100561.00
2024-02-13T23:58:13.044Z,100568.47
